South Orange, NJ

11:02 PM EST on December 24, 2014 (GMT -0500)
APRSWXNET West Orange NJ US | Change Station
CLOSE
Current Station
Personal Weather Station
Location: West Orange, NJ
Elevation: 393 ft
Nearby Weather Stations

Elev 393 ft 40.77 °N, 74.28 °W | Updated 34 minutes ago

Overcast
Overcast
56 °F
Feels Like 56 °F
N
0
Wind Variable Wind from North
Gusts 0.0 mph

Today
High -- | Low -- °F
--% Chance of Precip.
Yesterday
High -- | Low -- °F
Precip. -- in
7:19 AM 4:34 PM
Waxing Crescent, 13% visible
Pressure 29.56 in
Visibility 0.2 miles
Clouds
Dew Point 56 °F
Humidity 100%
Rainfall 0.74 in
Snow Depth Not available.
UV Not available.
Pollen .10 out of 12
Air Quality Not available.
Flu Activity Not available.
METAR KEWR 250351Z 00000KT 1/4SM R04R/4500VP6000FT -DZ FG VV002 12/12 A2956 RMK AO2 SFC VIS 1/2 RAE00DZB00 SLP010 P0000 T01170117

More Conditions Fewer Conditions

Pressure 29.56 in
Visibility 0.2 miles
Clouds
Dew Point 56 °F
Humidity 100%
Rainfall 0.74 in
Snow Depth Not available.
UV Not available.
Pollen .10 out of 12
Air Quality Not available.
Flu Activity Not available.
METAR KEWR 250351Z 00000KT 1/4SM R04R/4500VP6000FT -DZ FG VV002 12/12 A2956 RMK AO2 SFC VIS 1/2 RAE00DZB00 SLP010 P0000 T01170117

More Conditions Fewer Conditions

10-Day Weather Forecast

Almanac

Astronomy

Dec. 24, 2014 Rise Set
Actual Time
Civil Twilight
Nautical Twilight
Astronomical Twilight
Moon
Length of Visible Light
Length of Day
Tomorrow will be .
, % of the Moon is Illuminated

Today's Extremes

State Highs State Lows

Community

WunderPhotos

Upload Photos

1,780,226 photos uploaded!

WunderBlogs® & News

Nearby

Air Quality

  Air Quality AQ Index Pollutant
Not available.

Snow Depth

Station Depth Elevation

Earthquake Activity

City Distance Mag. Time & Date
Minimum magnitude displayed is 2.5.

Coastal Water Temperatures

Place Temperature

Nearby Weather Stations